createdAt,value
2017-04-15T00:00:03.635Z,993.77
2017-04-15T00:01:03.659Z,993.77
2017-04-15T00:02:03.685Z,993.75
2017-04-15T00:03:03.715Z,993.76
2017-04-15T00:04:03.743Z,993.77
2017-04-15T00:05:03.768Z,993.74
2017-04-15T00:06:03.796Z,993.76
2017-04-15T00:07:03.825Z,993.72
2017-04-15T00:08:03.855Z,993.73
2017-04-15T00:09:03.879Z,993.72
2017-04-15T00:10:03.908Z,993.71
2017-04-15T00:11:03.938Z,993.69
2017-04-15T00:12:03.964Z,993.71
2017-04-15T00:13:03.990Z,993.69
2017-04-15T00:14:04.021Z,993.7
2017-04-15T00:15:04.043Z,993.68
2017-04-15T00:16:04.325Z,993.66
2017-04-15T00:17:04.103Z,993.63
2017-04-15T00:18:04.129Z,993.63
2017-04-15T00:19:04.155Z,993.61
2017-04-15T00:20:04.183Z,993.65
2017-04-15T00:21:04.463Z,993.59
2017-04-15T00:22:04.236Z,993.62
2017-04-15T00:23:04.265Z,993.62
2017-04-15T00:24:04.295Z,993.59
2017-04-15T00:25:04.319Z,993.59
2017-04-15T00:26:04.600Z,993.57
2017-04-15T00:27:04.375Z,993.61
2017-04-15T00:28:04.402Z,993.55
2017-04-15T00:29:04.429Z,993.54
2017-04-15T00:30:04.459Z,993.58
2017-04-15T00:31:04.739Z,993.59
2017-04-15T00:32:04.513Z,993.57
2017-04-15T00:33:04.542Z,993.56
2017-04-15T00:34:04.569Z,993.58
2017-04-15T00:35:04.593Z,993.58
2017-04-15T00:36:04.623Z,993.57
2017-04-15T00:37:04.657Z,993.54
2017-04-15T00:38:04.680Z,993.57
2017-04-15T00:39:04.706Z,993.53
2017-04-15T00:40:04.738Z,993.53
2017-04-15T00:41:04.764Z,993.56
2017-04-15T00:42:04.787Z,993.55
2017-04-15T00:43:04.817Z,993.56
2017-04-15T00:44:04.846Z,993.54
2017-04-15T00:45:04.871Z,993.58
2017-04-15T00:46:04.898Z,993.56
2017-04-15T00:47:04.927Z,993.56
2017-04-15T00:48:04.949Z,993.55
2017-04-15T00:49:05.234Z,993.57
2017-04-15T00:50:05.437Z,993.57
2017-04-15T00:51:05.030Z,993.55
2017-04-15T00:52:05.289Z,993.51
2017-04-15T00:53:05.095Z,993.52
2017-04-15T00:54:05.117Z,993.55
2017-04-15T00:55:05.146Z,993.52
2017-04-15T00:56:05.174Z,993.62
2017-04-15T00:57:05.201Z,993.59
2017-04-15T00:58:05.239Z,993.63
2017-04-15T00:59:05.257Z,993.61
2017-04-15T01:00:05.285Z,993.6
2017-04-15T01:01:05.311Z,993.6
2017-04-15T01:02:05.338Z,993.61
2017-04-15T01:03:05.364Z,993.58
2017-04-15T01:04:05.403Z,993.61
2017-04-15T01:05:05.421Z,993.57
2017-04-15T01:06:05.450Z,993.56
2017-04-15T01:07:05.475Z,993.56
2017-04-15T01:08:05.500Z,993.58
2017-04-15T01:09:05.533Z,993.6
2017-04-15T01:10:05.557Z,993.64
2017-04-15T01:11:05.581Z,993.6
2017-04-15T01:12:05.615Z,993.61
2017-04-15T01:13:05.639Z,993.67
2017-04-15T01:14:05.668Z,993.64
2017-04-15T01:15:05.698Z,993.69
2017-04-15T01:16:05.722Z,993.67
2017-04-15T01:17:05.754Z,993.67
2017-04-15T01:18:05.775Z,993.69
2017-04-15T01:19:05.803Z,993.67
2017-04-15T01:20:05.833Z,993.64
2017-04-15T01:21:05.862Z,993.68
2017-04-15T01:22:05.889Z,993.64
2017-04-15T01:23:05.911Z,993.64
2017-04-15T01:24:05.944Z,993.65
2017-04-15T01:25:05.970Z,993.67
2017-04-15T01:26:05.997Z,993.66
2017-04-15T01:27:06.035Z,993.66
2017-04-15T01:28:06.061Z,993.68
2017-04-15T01:29:06.079Z,993.63
2017-04-15T01:30:06.117Z,993.66
2017-04-15T01:31:06.133Z,993.64
2017-04-15T01:32:06.161Z,993.63
2017-04-15T01:33:06.189Z,993.62
2017-04-15T01:34:06.216Z,993.62
2017-04-15T01:35:06.245Z,993.58
2017-04-15T01:36:06.273Z,993.6
2017-04-15T01:37:06.297Z,993.59
2017-04-15T01:38:06.327Z,993.62
2017-04-15T01:39:06.350Z,993.65
2017-04-15T01:40:06.379Z,993.65
2017-04-15T01:41:06.409Z,993.66
2017-04-15T01:42:06.434Z,993.68
2017-04-15T01:43:06.459Z,993.68
2017-04-15T01:44:06.491Z,993.67
2017-04-15T01:45:06.516Z,993.62
2017-04-15T01:46:06.541Z,993.68
2017-04-15T01:47:06.574Z,993.62
2017-04-15T01:48:06.598Z,993.65
2017-04-15T01:49:06.631Z,993.63
2017-04-15T01:50:06.655Z,993.67
2017-04-15T01:51:06.681Z,993.67
2017-04-15T01:52:06.709Z,993.64
2017-04-15T01:53:06.739Z,993.65
2017-04-15T01:54:06.762Z,993.64
2017-04-15T01:55:06.791Z,993.64
2017-04-15T01:56:06.815Z,993.65
2017-04-15T01:57:06.846Z,993.61
2017-04-15T01:58:06.871Z,993.58
2017-04-15T01:59:06.899Z,993.57
2017-04-15T02:00:06.926Z,993.57
2017-04-15T02:01:06.953Z,993.54
2017-04-15T02:02:06.982Z,993.58
2017-04-15T02:03:07.009Z,993.53
2017-04-15T02:04:07.040Z,993.54
2017-04-15T02:05:07.063Z,993.49
2017-04-15T02:06:07.099Z,993.54
2017-04-15T02:07:07.116Z,993.54
2017-04-15T02:08:07.145Z,993.49
2017-04-15T02:09:07.174Z,993.49
2017-04-15T02:10:07.198Z,993.46
2017-04-15T02:11:07.226Z,993.52
2017-04-15T02:12:07.255Z,993.53
2017-04-15T02:13:07.281Z,993.48
2017-04-15T02:14:07.307Z,993.49
2017-04-15T02:15:07.340Z,993.49
2017-04-15T02:16:07.363Z,993.52
2017-04-15T02:17:07.641Z,993.54
2017-04-15T02:18:07.415Z,993.52
2017-04-15T02:19:07.442Z,993.54
2017-04-15T02:20:07.474Z,993.53
2017-04-15T02:21:07.500Z,993.51
2017-04-15T02:22:07.778Z,993.51
2017-04-15T02:23:07.557Z,993.59
2017-04-15T02:24:07.581Z,993.6
2017-04-15T02:25:07.614Z,993.54
2017-04-15T02:26:07.635Z,993.56
2017-04-15T02:27:07.663Z,993.55
2017-04-15T02:28:07.918Z,993.58
2017-04-15T02:29:07.713Z,993.6
2017-04-15T02:30:07.968Z,993.54
2017-04-15T02:31:07.776Z,993.52
2017-04-15T02:32:07.800Z,993.5
2017-04-15T02:33:07.830Z,993.51
2017-04-15T02:34:07.853Z,993.54
2017-04-15T02:35:07.883Z,993.55
2017-04-15T02:36:07.906Z,993.5
2017-04-15T02:37:07.931Z,993.53
2017-04-15T02:38:07.964Z,993.54
2017-04-15T02:39:07.990Z,993.56
2017-04-15T02:40:08.017Z,993.55
2017-04-15T02:41:08.048Z,993.51
2017-04-15T02:42:08.072Z,993.55
2017-04-15T02:43:08.099Z,993.5
2017-04-15T02:44:08.126Z,993.52
2017-04-15T02:45:08.150Z,993.53
2017-04-15T02:46:08.182Z,993.54
2017-04-15T02:47:08.208Z,993.53
2017-04-15T02:48:08.237Z,993.56
2017-04-15T02:49:08.471Z,993.51
2017-04-15T02:50:08.289Z,993.52
2017-04-15T02:51:08.340Z,993.47
2017-04-15T02:52:08.349Z,993.49
2017-04-15T02:53:08.372Z,993.51
2017-04-15T02:54:08.630Z,993.52
2017-04-15T02:55:08.662Z,993.48
2017-04-15T02:56:08.453Z,993.48
2017-04-15T02:57:08.481Z,993.49
2017-04-15T02:58:08.508Z,993.47
2017-04-15T02:59:08.536Z,993.5
2017-04-15T03:00:08.556Z,993.46
2017-04-15T03:01:08.589Z,993.47
2017-04-15T03:02:08.614Z,993.43
2017-04-15T03:03:08.643Z,993.44
2017-04-15T03:04:08.673Z,993.42
2017-04-15T03:05:08.692Z,993.44
2017-04-15T03:06:08.726Z,993.43
2017-04-15T03:07:08.753Z,993.46
2017-04-15T03:08:08.780Z,993.43
2017-04-15T03:09:08.808Z,993.5
2017-04-15T03:10:08.833Z,993.46
2017-04-15T03:11:08.862Z,993.5
2017-04-15T03:12:08.882Z,993.46
2017-04-15T03:13:08.914Z,993.45
2017-04-15T03:14:08.944Z,993.43
2017-04-15T03:15:08.964Z,993.46
2017-04-15T03:16:08.996Z,993.43
2017-04-15T03:17:09.026Z,993.41
2017-04-15T03:18:09.050Z,993.37
2017-04-15T03:19:09.078Z,993.39
2017-04-15T03:20:09.104Z,993.39
2017-04-15T03:21:09.132Z,993.42
2017-04-15T03:22:09.162Z,993.38
2017-04-15T03:23:09.186Z,993.37
2017-04-15T03:24:09.214Z,993.37
2017-04-15T03:25:09.239Z,993.37
2017-04-15T03:26:09.267Z,993.31
2017-04-15T03:27:09.294Z,993.31
2017-04-15T03:28:09.322Z,993.31
2017-04-15T03:29:09.351Z,993.3
2017-04-15T03:30:09.375Z,993.29
2017-04-15T03:31:09.404Z,993.35
2017-04-15T03:32:09.430Z,993.32
2017-04-15T03:33:09.710Z,993.34
2017-04-15T03:34:09.482Z,993.35
2017-04-15T03:35:09.511Z,993.35
2017-04-15T03:36:09.540Z,993.33
2017-04-15T03:37:09.565Z,993.33
2017-04-15T03:38:09.594Z,993.33
2017-04-15T03:39:09.617Z,993.33
2017-04-15T03:40:09.646Z,993.31
2017-04-15T03:41:09.675Z,993.27
2017-04-15T03:42:09.700Z,993.29
2017-04-15T03:43:09.730Z,993.3
2017-04-15T03:44:09.754Z,993.3
2017-04-15T03:45:09.782Z,993.33
2017-04-15T03:46:09.806Z,993.3
2017-04-15T03:47:09.836Z,993.3
2017-04-15T03:48:09.865Z,993.33
2017-04-15T03:49:09.891Z,993.33
2017-04-15T03:50:09.930Z,993.32
2017-04-15T03:51:09.948Z,993.31
2017-04-15T03:52:09.972Z,993.34
2017-04-15T03:53:10.001Z,993.34
2017-04-15T03:54:10.026Z,993.33
2017-04-15T03:55:10.054Z,993.36
2017-04-15T03:56:10.079Z,993.4
2017-04-15T03:57:10.109Z,993.43
2017-04-15T03:58:10.138Z,993.43
2017-04-15T03:59:10.161Z,993.43
2017-04-15T04:00:10.190Z,993.43
2017-04-15T04:01:10.215Z,993.48
2017-04-15T04:02:10.243Z,993.46
2017-04-15T04:03:10.269Z,993.49
2017-04-15T04:04:10.298Z,993.49
2017-04-15T04:05:10.317Z,993.52
2017-04-15T04:06:10.351Z,993.5
2017-04-15T04:07:10.380Z,993.52
2017-04-15T04:08:10.405Z,993.48
2017-04-15T04:09:10.438Z,993.5
2017-04-15T04:10:10.457Z,993.5
2017-04-15T04:11:10.487Z,993.46
2017-04-15T04:12:10.511Z,993.48
2017-04-15T04:13:10.539Z,993.45
2017-04-15T04:14:10.568Z,993.45
2017-04-15T04:15:10.594Z,993.44
2017-04-15T04:16:10.622Z,993.44
2017-04-15T04:17:10.645Z,993.44
2017-04-15T04:18:10.673Z,993.41
2017-04-15T04:19:10.700Z,993.43
2017-04-15T04:20:10.723Z,993.45
2017-04-15T04:21:10.758Z,993.47
2017-04-15T04:22:10.779Z,993.45
2017-04-15T04:23:10.818Z,993.44
2017-04-15T04:24:10.836Z,993.43
2017-04-15T04:25:10.865Z,993.43
2017-04-15T04:26:10.893Z,993.4
2017-04-15T04:27:10.914Z,993.45
2017-04-15T04:28:10.946Z,993.42
2017-04-15T04:29:10.972Z,993.39
2017-04-15T04:30:11.001Z,993.41
2017-04-15T04:31:11.030Z,993.38
2017-04-15T04:32:11.054Z,993.36
2017-04-15T04:33:11.084Z,993.38
2017-04-15T04:34:11.107Z,993.37
2017-04-15T04:35:11.135Z,993.37
2017-04-15T04:36:11.161Z,993.35
2017-04-15T04:37:11.189Z,993.36
2017-04-15T04:38:11.215Z,993.35
2017-04-15T04:39:11.241Z,993.34
2017-04-15T04:40:11.273Z,993.37
2017-04-15T04:41:11.298Z,993.36
2017-04-15T04:42:11.326Z,993.35
2017-04-15T04:43:11.350Z,993.37
2017-04-15T04:44:11.380Z,993.37
2017-04-15T04:45:11.404Z,993.37
2017-04-15T04:46:11.434Z,993.39
2017-04-15T04:47:11.458Z,993.35
2017-04-15T04:48:11.487Z,993.37
2017-04-15T04:49:11.517Z,993.37
2017-04-15T04:50:11.540Z,993.34
2017-04-15T04:51:11.569Z,993.36
2017-04-15T04:52:11.594Z,993.34
2017-04-15T04:53:11.618Z,993.38
2017-04-15T04:54:11.652Z,993.41
2017-04-15T04:55:11.675Z,993.41
2017-04-15T04:56:11.704Z,993.42
2017-04-15T04:57:11.729Z,993.45
2017-04-15T04:58:11.756Z,993.47
2017-04-15T04:59:11.783Z,993.47
2017-04-15T05:00:11.812Z,993.46
2017-04-15T05:01:11.840Z,993.46
2017-04-15T05:02:11.864Z,993.45
2017-04-15T05:03:11.893Z,993.47
2017-04-15T05:04:12.170Z,993.51
2017-04-15T05:05:11.947Z,993.46
2017-04-15T05:06:11.972Z,993.5
2017-04-15T05:07:12.001Z,993.48
2017-04-15T05:08:12.025Z,993.48
2017-04-15T05:09:12.306Z,993.47
2017-04-15T05:10:12.083Z,993.47
2017-04-15T05:11:12.112Z,993.5
2017-04-15T05:12:12.137Z,993.47
2017-04-15T05:13:12.161Z,993.48
2017-04-15T05:14:12.441Z,993.5
2017-04-15T05:15:12.218Z,993.53
2017-04-15T05:16:12.247Z,993.51
2017-04-15T05:17:12.272Z,993.51
2017-04-15T05:18:12.301Z,993.54
2017-04-15T05:19:12.575Z,993.54
2017-04-15T05:20:12.350Z,993.52
2017-04-15T05:21:12.383Z,993.56
2017-04-15T05:22:12.410Z,993.59
2017-04-15T05:23:12.437Z,993.58
2017-04-15T05:24:12.713Z,993.61
2017-04-15T05:25:12.493Z,993.56
2017-04-15T05:26:12.519Z,993.62
2017-04-15T05:27:12.544Z,993.64
2017-04-15T05:28:12.574Z,993.64
2017-04-15T05:29:12.849Z,993.64
2017-04-15T05:30:12.625Z,993.65
2017-04-15T05:31:12.654Z,993.68
2017-04-15T05:32:12.680Z,993.69
2017-04-15T05:33:12.709Z,993.67
2017-04-15T05:34:12.739Z,993.67
2017-04-15T05:35:12.762Z,993.69
2017-04-15T05:36:12.787Z,993.7
2017-04-15T05:37:12.816Z,993.71
2017-04-15T05:38:12.845Z,993.72
2017-04-15T05:39:12.869Z,993.72
2017-04-15T05:40:12.897Z,993.76
2017-04-15T05:41:12.926Z,993.77
2017-04-15T05:42:12.956Z,993.75
2017-04-15T05:43:12.981Z,993.75
2017-04-15T05:44:13.004Z,993.76
2017-04-15T05:45:13.051Z,993.7
2017-04-15T05:46:13.062Z,993.73
2017-04-15T05:47:13.092Z,993.73
2017-04-15T05:48:13.127Z,993.74
2017-04-15T05:49:13.145Z,993.77
2017-04-15T05:50:13.174Z,993.79
2017-04-15T05:51:13.198Z,993.8
2017-04-15T05:52:13.227Z,993.8
2017-04-15T05:53:13.256Z,993.76
2017-04-15T05:54:13.277Z,993.81
2017-04-15T05:55:13.309Z,993.84
2017-04-15T05:56:13.333Z,993.81
2017-04-15T05:57:13.359Z,993.82
2017-04-15T05:58:13.392Z,993.84
2017-04-15T05:59:13.416Z,993.89
2017-04-15T06:00:13.449Z,993.89
2017-04-15T06:01:13.475Z,993.89
2017-04-15T06:02:13.502Z,993.92
2017-04-15T06:03:13.532Z,993.91
2017-04-15T06:04:13.552Z,993.93
2017-04-15T06:05:13.585Z,993.89
2017-04-15T06:06:13.613Z,993.89
2017-04-15T06:07:13.638Z,993.9
2017-04-15T06:08:13.666Z,993.9
2017-04-15T06:09:13.696Z,993.92
2017-04-15T06:10:13.721Z,993.89
2017-04-15T06:11:13.748Z,993.87
2017-04-15T06:12:13.779Z,993.88
2017-04-15T06:13:13.803Z,993.94
2017-04-15T06:14:13.833Z,993.9
2017-04-15T06:15:13.861Z,993.93
2017-04-15T06:16:13.886Z,993.95
2017-04-15T06:17:13.914Z,993.94
2017-04-15T06:18:13.944Z,993.92
2017-04-15T06:19:13.968Z,993.95
2017-04-15T06:20:13.996Z,993.93
2017-04-15T06:21:14.025Z,993.93
2017-04-15T06:22:14.054Z,993.95
2017-04-15T06:23:14.079Z,993.94
2017-04-15T06:24:14.108Z,993.94
2017-04-15T06:25:14.136Z,993.96
2017-04-15T06:26:14.173Z,993.94
2017-04-15T06:27:14.186Z,993.96
2017-04-15T06:28:14.219Z,993.95
2017-04-15T06:29:14.243Z,993.96
2017-04-15T06:30:14.274Z,993.98
2017-04-15T06:31:14.301Z,993.99
2017-04-15T06:32:14.330Z,993.98
2017-04-15T06:33:14.355Z,993.98
2017-04-15T06:34:14.384Z,994
2017-04-15T06:35:14.413Z,993.95
2017-04-15T06:36:14.441Z,994
2017-04-15T06:37:14.465Z,993.98
2017-04-15T06:38:14.494Z,993.99
2017-04-15T06:39:14.523Z,994.04
2017-04-15T06:40:14.552Z,994
2017-04-15T06:41:14.577Z,994.02
2017-04-15T06:42:14.606Z,993.98
2017-04-15T06:43:14.634Z,994.02
2017-04-15T06:44:14.667Z,994
2017-04-15T06:45:14.687Z,994.08
2017-04-15T06:46:14.716Z,994.07
2017-04-15T06:47:14.748Z,994.11
2017-04-15T06:48:14.769Z,994.1
2017-04-15T06:49:14.799Z,994.11
2017-04-15T06:50:14.828Z,994.11
2017-04-15T06:51:14.850Z,994.09
2017-04-15T06:52:14.882Z,994.11
2017-04-15T06:53:14.910Z,994.12
2017-04-15T06:54:14.939Z,994.16
2017-04-15T06:55:15.213Z,994.15
2017-04-15T06:56:14.993Z,994.13
2017-04-15T06:57:15.022Z,994.12
2017-04-15T06:58:15.050Z,994.1
2017-04-15T06:59:15.076Z,994.11
2017-04-15T07:00:15.355Z,994.11
2017-04-15T07:01:15.135Z,994.08
2017-04-15T07:02:15.161Z,994.12
2017-04-15T07:03:15.186Z,994.07
2017-04-15T07:04:15.218Z,994.11
2017-04-15T07:05:15.495Z,994.11
2017-04-15T07:06:15.269Z,994.09
2017-04-15T07:07:15.301Z,994.08
2017-04-15T07:08:15.325Z,994.08
2017-04-15T07:09:15.351Z,994.07
2017-04-15T07:10:15.630Z,994.11
2017-04-15T07:11:15.412Z,994.14
2017-04-15T07:12:15.437Z,994.13
2017-04-15T07:13:15.463Z,994.18
2017-04-15T07:14:15.486Z,994.14
2017-04-15T07:15:15.769Z,994.14
2017-04-15T07:16:15.548Z,994.17
2017-04-15T07:17:15.571Z,994.14
2017-04-15T07:18:15.601Z,994.18
2017-04-15T07:19:15.626Z,994.18
2017-04-15T07:20:15.910Z,994.18
2017-04-15T07:21:15.686Z,994.15
2017-04-15T07:22:15.712Z,994.16
2017-04-15T07:23:15.739Z,994.16
2017-04-15T07:24:15.770Z,994.16
2017-04-15T07:25:16.051Z,994.14
2017-04-15T07:26:15.821Z,994.14
2017-04-15T07:27:15.851Z,994.09
2017-04-15T07:28:15.881Z,994.16
2017-04-15T07:29:15.909Z,994.11
2017-04-15T07:30:16.190Z,994.13
2017-04-15T07:31:15.963Z,994.09
2017-04-15T07:32:15.993Z,994.14
2017-04-15T07:33:16.022Z,994.14
2017-04-15T07:34:16.049Z,994.14
2017-04-15T07:35:16.327Z,994.11
2017-04-15T07:36:16.102Z,994.07
2017-04-15T07:37:16.132Z,994.06
2017-04-15T07:38:16.164Z,994.09
2017-04-15T07:39:16.184Z,994.12
2017-04-15T07:40:16.466Z,994.06
2017-04-15T07:41:16.261Z,994.08
2017-04-15T07:42:16.271Z,994.08
2017-04-15T07:43:16.302Z,994.1
2017-04-15T07:44:16.325Z,994.06
2017-04-15T07:45:16.606Z,994.06
2017-04-15T07:46:16.382Z,994.04
2017-04-15T07:47:16.412Z,994.04
2017-04-15T07:48:16.441Z,994.07
2017-04-15T07:49:16.466Z,994.09
2017-04-15T07:50:16.742Z,994.12
2017-04-15T07:51:16.521Z,994.18
2017-04-15T07:52:16.552Z,994.18
2017-04-15T07:53:16.580Z,994.22
2017-04-15T07:54:16.600Z,994.24
2017-04-15T07:55:16.886Z,994.27
2017-04-15T07:56:16.663Z,994.31
2017-04-15T07:57:16.691Z,994.26
2017-04-15T07:58:16.715Z,994.25
2017-04-15T07:59:16.744Z,994.26
2017-04-15T08:00:16.772Z,994.28
2017-04-15T08:01:16.801Z,994.24
2017-04-15T08:02:16.830Z,994.25
2017-04-15T08:03:16.856Z,994.29
2017-04-15T08:04:16.884Z,994.29
2017-04-15T08:05:16.913Z,994.25
2017-04-15T08:06:16.943Z,994.26
2017-04-15T08:07:16.971Z,994.25
2017-04-15T08:08:16.991Z,994.28
2017-04-15T08:09:17.024Z,994.21
2017-04-15T08:10:17.052Z,994.21
2017-04-15T08:11:17.081Z,994.24
2017-04-15T08:12:17.110Z,994.2
2017-04-15T08:13:17.134Z,994.22
2017-04-15T08:14:17.166Z,994.23
2017-04-15T08:15:17.193Z,994.21
2017-04-15T08:16:17.222Z,994.2
2017-04-15T08:17:17.250Z,994.24
2017-04-15T08:18:17.349Z,994.22
2017-04-15T08:19:17.302Z,994.27
2017-04-15T08:20:17.332Z,994.27
2017-04-15T08:21:17.362Z,994.27
2017-04-15T08:22:17.390Z,994.34
2017-04-15T08:23:17.417Z,994.27
2017-04-15T08:24:17.444Z,994.26
2017-04-15T08:25:17.473Z,994.26
2017-04-15T08:26:17.502Z,994.27
2017-04-15T08:27:17.531Z,994.34
2017-04-15T08:28:17.554Z,994.34
2017-04-15T08:29:17.588Z,994.3
2017-04-15T08:30:17.614Z,994.32
2017-04-15T08:31:17.642Z,994.25
2017-04-15T08:32:17.668Z,994.22
2017-04-15T08:33:17.693Z,994.27
2017-04-15T08:34:17.728Z,994.27
2017-04-15T08:35:17.751Z,994.25
2017-04-15T08:36:17.780Z,994.27
2017-04-15T08:37:17.805Z,994.23
2017-04-15T08:38:17.839Z,994.26
2017-04-15T08:39:17.867Z,994.29
2017-04-15T08:40:17.896Z,994.28
2017-04-15T08:41:17.930Z,994.29
2017-04-15T08:42:17.950Z,994.29
2017-04-15T08:43:17.973Z,994.27
2017-04-15T08:44:18.008Z,994.3
2017-04-15T08:45:18.030Z,994.32
2017-04-15T08:46:18.061Z,994.29
2017-04-15T08:47:18.089Z,994.32
2017-04-15T08:48:18.118Z,994.28
2017-04-15T08:49:18.147Z,994.3
2017-04-15T08:50:18.171Z,994.32
2017-04-15T08:51:18.200Z,994.4
2017-04-15T08:52:18.229Z,994.35
2017-04-15T08:53:18.258Z,994.35
2017-04-15T08:54:18.287Z,994.35
2017-04-15T08:55:18.314Z,994.38
2017-04-15T08:56:18.339Z,994.37
2017-04-15T08:57:18.367Z,994.35
2017-04-15T08:58:18.398Z,994.39
2017-04-15T08:59:18.426Z,994.34
2017-04-15T09:00:18.454Z,994.36
2017-04-15T09:01:18.479Z,994.34
2017-04-15T09:02:18.509Z,994.31
2017-04-15T09:03:18.536Z,994.3
2017-04-15T09:04:18.565Z,994.31
2017-04-15T09:05:18.591Z,994.29
2017-04-15T09:06:18.620Z,994.33
2017-04-15T09:07:18.650Z,994.34
2017-04-15T09:08:18.678Z,994.44
2017-04-15T09:09:18.701Z,994.35
2017-04-15T09:10:18.731Z,994.45
2017-04-15T09:11:18.758Z,994.32
2017-04-15T09:12:18.788Z,994.35
2017-04-15T09:13:18.819Z,994.34
2017-04-15T09:14:18.847Z,994.29
2017-04-15T09:15:18.875Z,994.35
2017-04-15T09:16:18.899Z,994.28
2017-04-15T09:17:18.927Z,994.34
2017-04-15T09:18:18.956Z,994.29
2017-04-15T09:19:18.986Z,994.31
2017-04-15T09:20:19.014Z,994.29
2017-04-15T09:21:19.039Z,994.35
2017-04-15T09:22:19.067Z,994.29
2017-04-15T09:23:19.098Z,994.28
2017-04-15T09:24:19.125Z,994.25
2017-04-15T09:25:19.151Z,994.26
2017-04-15T09:26:19.183Z,994.26
2017-04-15T09:27:19.209Z,994.29
2017-04-15T09:28:19.235Z,994.24
2017-04-15T09:29:19.264Z,994.28
2017-04-15T09:30:19.293Z,994.29
2017-04-15T09:31:19.318Z,994.23
2017-04-15T09:32:19.343Z,994.28
2017-04-15T09:33:19.375Z,994.31
2017-04-15T09:34:19.405Z,994.29
2017-04-15T09:35:19.432Z,994.3
2017-04-15T09:36:19.456Z,994.29
2017-04-15T09:37:19.482Z,994.27
2017-04-15T09:38:19.516Z,994.29
2017-04-15T09:39:19.545Z,994.28
2017-04-15T09:40:19.573Z,994.25
2017-04-15T09:41:19.601Z,994.29
2017-04-15T09:42:19.626Z,994.25
2017-04-15T09:43:19.654Z,994.28
2017-04-15T09:44:19.685Z,994.22
2017-04-15T09:45:19.711Z,994.23
2017-04-15T09:46:19.742Z,994.21
2017-04-15T09:47:19.768Z,994.24
2017-04-15T09:48:19.795Z,994.25
2017-04-15T09:49:19.824Z,994.24
2017-04-15T09:50:19.852Z,994.24
2017-04-15T09:51:19.881Z,994.3
2017-04-15T09:52:19.910Z,994.26
2017-04-15T09:53:19.939Z,994.34
2017-04-15T09:54:19.964Z,994.27
2017-04-15T09:55:19.994Z,994.3
2017-04-15T09:56:20.020Z,994.22
2017-04-15T09:57:20.050Z,994.23
2017-04-15T09:58:20.079Z,994.25
2017-04-15T09:59:20.108Z,994.21
2017-04-15T10:00:20.138Z,994.26
2017-04-15T10:01:20.161Z,994.25
2017-04-15T10:02:20.188Z,994.3
2017-04-15T10:03:20.218Z,994.25
2017-04-15T10:04:20.247Z,994.29
2017-04-15T10:05:20.280Z,994.27
2017-04-15T10:06:20.301Z,994.27
2017-04-15T10:07:20.329Z,994.28
2017-04-15T10:08:20.380Z,994.3
2017-04-15T10:09:20.387Z,994.27
2017-04-15T10:10:20.416Z,994.32
2017-04-15T10:11:20.447Z,994.34
2017-04-15T10:12:20.473Z,994.33
2017-04-15T10:13:20.497Z,994.34
2017-04-15T10:14:20.527Z,994.34
2017-04-15T10:15:20.551Z,994.36
2017-04-15T10:16:20.580Z,994.43
2017-04-15T10:17:20.613Z,994.36
2017-04-15T10:18:20.642Z,994.37
2017-04-15T10:19:20.671Z,994.36
2017-04-15T10:20:20.694Z,994.39
2017-04-15T10:21:20.720Z,994.37
2017-04-15T10:22:20.753Z,994.39
2017-04-15T10:23:20.777Z,994.51
2017-04-15T10:24:20.810Z,994.47
2017-04-15T10:25:20.838Z,994.43
2017-04-15T10:26:20.864Z,994.45
2017-04-15T10:27:20.892Z,994.41
2017-04-15T10:28:20.920Z,994.44
2017-04-15T10:29:20.950Z,994.44
2017-04-15T10:30:20.977Z,994.48
2017-04-15T10:31:21.006Z,994.41
2017-04-15T10:32:21.036Z,994.37
2017-04-15T10:33:21.066Z,994.45
2017-04-15T10:34:21.094Z,994.46
2017-04-15T10:35:21.120Z,994.39
2017-04-15T10:36:21.149Z,994.4
2017-04-15T10:37:21.172Z,994.45
2017-04-15T10:38:21.205Z,994.42
2017-04-15T10:39:21.230Z,994.4
2017-04-15T10:40:21.262Z,994.39
2017-04-15T10:41:21.290Z,994.4
2017-04-15T10:42:21.316Z,994.4
2017-04-15T10:43:21.346Z,994.5
2017-04-15T10:44:21.374Z,994.48
2017-04-15T10:45:21.402Z,994.48
2017-04-15T10:46:21.430Z,994.48
2017-04-15T10:47:21.458Z,994.47
2017-04-15T10:48:21.489Z,994.47
2017-04-15T10:49:21.512Z,994.52
2017-04-15T10:50:21.541Z,994.51
2017-04-15T10:51:21.571Z,994.55
2017-04-15T10:52:21.599Z,994.49
2017-04-15T10:53:21.620Z,994.5
2017-04-15T10:54:21.656Z,994.55
2017-04-15T10:55:21.686Z,994.49
2017-04-15T10:56:21.710Z,994.53
2017-04-15T10:57:21.736Z,994.49
2017-04-15T10:58:21.767Z,994.53
2017-04-15T10:59:21.794Z,994.51
2017-04-15T11:00:21.817Z,994.47
2017-04-15T11:01:21.850Z,994.49
2017-04-15T11:02:21.878Z,994.51
2017-04-15T11:03:21.909Z,994.49
2017-04-15T11:04:21.937Z,994.49
2017-04-15T11:05:21.961Z,994.49
2017-04-15T11:06:22.241Z,994.49
2017-04-15T11:07:22.020Z,994.47
2017-04-15T11:08:22.048Z,994.47
2017-04-15T11:09:22.084Z,994.46
2017-04-15T11:10:22.106Z,994.48
2017-04-15T11:11:22.381Z,994.45
2017-04-15T11:12:22.160Z,994.45
2017-04-15T11:13:22.188Z,994.43
2017-04-15T11:14:22.214Z,994.48
2017-04-15T11:15:22.238Z,994.49
2017-04-15T11:16:22.522Z,994.45
2017-04-15T11:17:22.299Z,994.43
2017-04-15T11:18:22.327Z,994.47
2017-04-15T11:19:22.353Z,994.46
2017-04-15T11:20:22.375Z,994.45
2017-04-15T11:21:22.962Z,994.46
2017-04-15T11:22:22.442Z,994.44
2017-04-15T11:23:22.463Z,994.43
2017-04-15T11:24:22.492Z,994.46
2017-04-15T11:25:22.519Z,994.47
2017-04-15T11:26:22.549Z,994.48
2017-04-15T11:27:22.570Z,994.45
2017-04-15T11:28:22.603Z,994.49
2017-04-15T11:29:22.630Z,994.47
2017-04-15T11:30:22.653Z,994.47
2017-04-15T11:31:22.684Z,994.53
2017-04-15T11:32:22.713Z,994.52
2017-04-15T11:33:22.742Z,994.49
2017-04-15T11:34:22.767Z,994.51
2017-04-15T11:35:22.798Z,994.54
2017-04-15T11:36:22.826Z,994.52
2017-04-15T11:37:22.854Z,994.5
2017-04-15T11:38:22.881Z,994.5
2017-04-15T11:39:22.906Z,994.57
2017-04-15T11:40:22.946Z,994.57
2017-04-15T11:41:22.964Z,994.56
2017-04-15T11:42:22.993Z,994.6
2017-04-15T11:43:23.018Z,994.6
2017-04-15T11:44:23.047Z,994.57
2017-04-15T11:45:23.074Z,994.59
2017-04-15T11:46:23.096Z,994.56
2017-04-15T11:47:23.130Z,994.56
2017-04-15T11:48:23.150Z,994.54
2017-04-15T11:49:23.186Z,994.55
2017-04-15T11:50:23.212Z,994.53
2017-04-15T11:51:23.239Z,994.57
2017-04-15T11:52:23.265Z,994.51
2017-04-15T11:53:23.297Z,994.52
2017-04-15T11:54:23.324Z,994.53
2017-04-15T11:55:23.350Z,994.47
2017-04-15T11:56:23.380Z,994.47
2017-04-15T11:57:23.406Z,994.45
2017-04-15T11:58:23.433Z,994.45
2017-04-15T11:59:23.463Z,994.47
2017-04-15T12:00:23.487Z,994.48
2017-04-15T12:01:23.512Z,994.49
2017-04-15T12:02:23.545Z,994.5
2017-04-15T12:03:23.569Z,994.5
2017-04-15T12:04:23.597Z,994.5
2017-04-15T12:05:23.628Z,994.46
2017-04-15T12:06:23.652Z,994.53
2017-04-15T12:07:23.684Z,994.51
2017-04-15T12:08:23.701Z,994.52
2017-04-15T12:09:23.737Z,994.51
2017-04-15T12:10:23.766Z,994.55
2017-04-15T12:11:23.791Z,994.55
2017-04-15T12:12:23.820Z,994.5
2017-04-15T12:13:23.840Z,994.48
2017-04-15T12:14:23.879Z,994.49
2017-04-15T12:15:23.898Z,994.51
2017-04-15T12:16:23.932Z,994.52
2017-04-15T12:17:23.952Z,994.52
2017-04-15T12:18:23.985Z,994.54
2017-04-15T12:19:24.021Z,994.52
2017-04-15T12:20:24.042Z,994.5
2017-04-15T12:21:24.069Z,994.52
2017-04-15T12:22:24.346Z,994.53
2017-04-15T12:23:24.124Z,994.49
2017-04-15T12:24:24.150Z,994.53
2017-04-15T12:25:24.182Z,994.56
2017-04-15T12:26:24.207Z,994.53
2017-04-15T12:27:24.560Z,994.5
2017-04-15T12:28:24.301Z,994.5
2017-04-15T12:29:24.288Z,994.51
2017-04-15T12:30:24.329Z,994.57